createdAt,value
2018-03-15T00:02:06.187Z,99.90
2018-03-15T00:04:34.438Z,99.90
2018-03-15T00:07:01.900Z,99.90
2018-03-15T00:09:29.388Z,99.90
2018-03-15T00:11:56.861Z,99.90
2018-03-15T00:14:24.319Z,99.90
2018-03-15T00:16:51.850Z,99.90
2018-03-15T00:19:19.412Z,99.90
2018-03-15T00:21:46.867Z,99.90
2018-03-15T00:24:14.452Z,99.90
2018-03-15T00:26:42.000Z,99.90
2018-03-15T00:29:09.752Z,99.90
2018-03-15T00:31:37.215Z,99.90
2018-03-15T00:34:04.688Z,99.90
2018-03-15T00:36:32.436Z,99.90
2018-03-15T00:38:59.892Z,99.90
2018-03-15T00:41:27.664Z,99.90
2018-03-15T00:43:55.115Z,99.90
2018-03-15T00:46:22.586Z,99.90
2018-03-15T00:48:50.165Z,99.90
2018-03-15T00:51:18.392Z,99.90
2018-03-15T00:53:45.872Z,99.90
2018-03-15T00:56:13.331Z,99.90
2018-03-15T00:58:40.792Z,99.90
2018-03-15T01:01:08.553Z,99.90
2018-03-15T01:03:36.315Z,99.90
2018-03-15T01:06:03.780Z,99.90
2018-03-15T01:08:31.453Z,99.90
2018-03-15T01:10:58.924Z,99.90
2018-03-15T01:13:26.452Z,99.90
2018-03-15T01:15:53.912Z,99.90
2018-03-15T01:18:21.382Z,99.90
2018-03-15T01:20:48.844Z,99.90
2018-03-15T01:23:16.595Z,99.90
2018-03-15T01:25:44.052Z,99.90
2018-03-15T01:28:11.512Z,99.90
2018-03-15T01:30:38.971Z,99.90
2018-03-15T01:33:06.448Z,99.90
2018-03-15T01:35:34.187Z,99.90
2018-03-15T01:38:03.156Z,99.90
2018-03-15T01:40:30.621Z,99.90
2018-03-15T01:42:58.088Z,99.90
2018-03-15T01:45:25.647Z,99.90
2018-03-15T01:47:53.323Z,99.90
2018-03-15T01:50:20.791Z,99.90
2018-03-15T01:52:48.248Z,99.90
2018-03-15T01:55:15.704Z,99.90
2018-03-15T01:57:43.200Z,99.90
2018-03-15T02:00:10.925Z,99.90
2018-03-15T02:02:38.683Z,99.90
2018-03-15T02:05:06.156Z,99.90
2018-03-15T02:07:33.608Z,99.90
2018-03-15T02:10:01.352Z,99.90
2018-03-15T02:12:28.830Z,99.90
2018-03-15T02:14:56.500Z,99.90
2018-03-15T02:17:24.043Z,99.90
2018-03-15T02:19:51.507Z,99.90
2018-03-15T02:22:18.978Z,99.90
2018-03-15T02:24:46.724Z,99.90
2018-03-15T02:27:14.192Z,99.90
2018-03-15T02:29:41.956Z,99.90
2018-03-15T02:32:09.422Z,99.90
2018-03-15T02:34:36.920Z,99.90
2018-03-15T02:37:04.637Z,99.90
2018-03-15T02:39:32.142Z,99.90
2018-03-15T02:41:59.652Z,99.90
2018-03-15T02:44:27.312Z,99.90
2018-03-15T02:46:54.777Z,99.90
2018-03-15T02:49:22.460Z,99.90
2018-03-15T02:51:49.975Z,99.90
2018-03-15T02:54:17.432Z,99.90
2018-03-15T02:56:44.896Z,99.90
2018-03-15T02:59:12.674Z,99.90
2018-03-15T03:01:40.353Z,99.90
2018-03-15T03:04:07.884Z,99.90
2018-03-15T03:06:35.674Z,99.90
2018-03-15T03:09:03.140Z,99.90
2018-03-15T03:11:30.812Z,99.90
2018-03-15T03:13:58.267Z,99.90
2018-03-15T03:16:25.812Z,99.90
2018-03-15T03:18:53.569Z,99.90
2018-03-15T03:21:21.032Z,99.90
2018-03-15T03:23:48.795Z,99.90
2018-03-15T03:26:16.248Z,99.90
2018-03-15T03:28:43.707Z,99.90
2018-03-15T03:31:11.471Z,99.90
2018-03-15T03:33:39.235Z,99.90
2018-03-15T03:36:06.702Z,99.90
2018-03-15T03:38:34.460Z,99.90
2018-03-15T03:41:02.229Z,99.90
2018-03-15T03:43:29.991Z,99.90
2018-03-15T03:45:57.462Z,99.90
2018-03-15T03:48:24.919Z,99.90
2018-03-15T03:50:52.376Z,99.90
2018-03-15T03:53:20.131Z,99.90
2018-03-15T03:55:47.812Z,99.90
2018-03-15T03:58:15.356Z,99.90
2018-03-15T04:00:42.824Z,99.90
2018-03-15T04:03:11.043Z,99.90
2018-03-15T04:05:38.516Z,99.90
2018-03-15T04:08:05.975Z,99.90
2018-03-15T04:10:33.443Z,99.90
2018-03-15T04:13:01.019Z,99.90
2018-03-15T04:15:28.484Z,99.90
2018-03-15T04:17:55.951Z,99.90
2018-03-15T04:20:23.404Z,99.90
2018-03-15T04:22:51.191Z,99.90
2018-03-15T04:25:18.799Z,99.90
2018-03-15T04:27:46.385Z,99.90
2018-03-15T04:30:14.061Z,99.90
2018-03-15T04:32:41.531Z,99.90
2018-03-15T04:35:09.064Z,99.90
2018-03-15T04:37:36.524Z,99.90
2018-03-15T04:40:04.292Z,99.90
2018-03-15T04:42:31.749Z,99.90
2018-03-15T04:44:59.323Z,99.90
2018-03-15T04:47:27.581Z,99.90
2018-03-15T04:49:55.347Z,99.90
2018-03-15T04:52:22.824Z,99.90
2018-03-15T04:54:50.483Z,99.90
2018-03-15T04:57:18.944Z,99.90
2018-03-15T04:59:46.629Z,99.90
2018-03-15T05:02:14.168Z,99.90
2018-03-15T05:04:41.693Z,99.90
2018-03-15T05:07:09.166Z,99.90
2018-03-15T05:09:36.624Z,99.90
2018-03-15T05:12:04.307Z,99.90
2018-03-15T05:14:31.764Z,99.90
2018-03-15T05:16:59.215Z,99.90
2018-03-15T05:19:26.987Z,99.90
2018-03-15T05:21:54.444Z,99.90
2018-03-15T05:24:21.913Z,99.90
2018-03-15T05:26:49.628Z,99.90
2018-03-15T05:29:17.112Z,99.90
2018-03-15T05:31:44.568Z,99.90
2018-03-15T05:34:12.028Z,99.90
2018-03-15T05:36:39.807Z,99.90
2018-03-15T05:39:07.275Z,99.90
2018-03-15T05:41:34.725Z,99.90
2018-03-15T05:44:02.194Z,99.90
2018-03-15T05:46:29.650Z,99.90
2018-03-15T05:48:57.407Z,99.90
2018-03-15T05:51:25.217Z,99.90
2018-03-15T05:53:52.639Z,99.90
2018-03-15T05:56:20.391Z,99.90
2018-03-15T05:58:47.865Z,99.90
2018-03-15T06:01:15.315Z,99.90
2018-03-15T06:03:42.781Z,99.90
2018-03-15T06:06:10.446Z,99.90
2018-03-15T06:08:37.996Z,99.90
2018-03-15T06:11:05.451Z,99.90
2018-03-15T06:13:33.123Z,99.90
2018-03-15T06:16:00.676Z,99.90
2018-03-15T06:18:28.131Z,99.90
2018-03-15T06:20:55.802Z,99.90
2018-03-15T06:23:23.262Z,99.90
2018-03-15T06:25:50.736Z,99.90
2018-03-15T06:28:18.263Z,99.90
2018-03-15T06:30:45.729Z,99.90
2018-03-15T06:33:13.499Z,99.90
2018-03-15T06:35:40.951Z,99.90
2018-03-15T06:38:08.420Z,99.90
2018-03-15T06:40:36.051Z,99.90
2018-03-15T06:43:03.636Z,99.90
2018-03-15T06:45:31.308Z,99.90
2018-03-15T06:47:59.550Z,99.90
2018-03-15T06:50:27.024Z,99.90
2018-03-15T06:52:54.488Z,99.90
2018-03-15T06:55:22.056Z,99.90
2018-03-15T06:57:49.520Z,99.90
2018-03-15T07:00:17.865Z,99.90
2018-03-15T07:02:45.349Z,99.90
2018-03-15T07:05:12.874Z,99.90
2018-03-15T07:07:40.664Z,99.90
2018-03-15T07:10:08.432Z,99.90
2018-03-15T07:12:36.200Z,99.90
2018-03-15T07:15:03.660Z,99.90
2018-03-15T07:17:31.423Z,99.90
2018-03-15T07:19:58.873Z,99.90
2018-03-15T07:22:26.332Z,99.90
2018-03-15T07:24:54.105Z,99.90
2018-03-15T07:27:21.869Z,99.90
2018-03-15T07:29:49.328Z,99.90
2018-03-15T07:32:16.945Z,99.90
2018-03-15T07:34:44.516Z,99.90
2018-03-15T07:37:11.975Z,99.90
2018-03-15T07:39:39.431Z,99.90
2018-03-15T07:42:06.926Z,99.90
2018-03-15T07:44:34.679Z,99.90
2018-03-15T07:47:02.453Z,99.90
2018-03-15T07:49:30.745Z,99.90
2018-03-15T07:51:58.284Z,99.90
2018-03-15T07:54:25.832Z,99.90
2018-03-15T07:56:53.557Z,99.90
2018-03-15T07:59:21.075Z,99.90
2018-03-15T08:01:48.536Z,99.90
2018-03-15T08:04:16.197Z,99.90
2018-03-15T08:06:43.953Z,99.90
2018-03-15T08:09:11.727Z,99.90
2018-03-15T08:11:39.492Z,99.90
2018-03-15T08:14:06.952Z,99.90
2018-03-15T08:16:35.011Z,99.90
2018-03-15T08:19:02.472Z,99.90
2018-03-15T08:21:29.921Z,99.90
2018-03-15T08:23:57.388Z,99.90
2018-03-15T08:26:24.846Z,99.90
2018-03-15T08:28:52.302Z,99.90
2018-03-15T08:31:19.782Z,99.90
2018-03-15T08:33:47.231Z,99.90
2018-03-15T08:36:14.684Z,99.90
2018-03-15T08:38:43.057Z,99.90
2018-03-15T08:41:10.822Z,99.90
2018-03-15T08:43:38.588Z,99.90
2018-03-15T08:46:06.352Z,99.90
2018-03-15T08:48:33.818Z,99.90
2018-03-15T08:51:01.575Z,99.90
2018-03-15T08:53:29.052Z,99.90
2018-03-15T08:55:56.777Z,99.90
2018-03-15T08:58:24.240Z,99.90
2018-03-15T09:00:51.711Z,99.90
2018-03-15T09:03:19.180Z,99.90
2018-03-15T09:05:46.632Z,99.90
2018-03-15T09:08:14.164Z,99.90
2018-03-15T09:10:41.869Z,99.90
2018-03-15T09:13:09.615Z,99.90
2018-03-15T09:15:37.076Z,99.90
2018-03-15T09:18:04.560Z,99.90
2018-03-15T09:20:32.213Z,99.90
2018-03-15T09:22:59.755Z,99.90
2018-03-15T09:25:27.680Z,99.90
2018-03-15T09:27:55.286Z,99.90
2018-03-15T09:30:22.760Z,99.90
2018-03-15T09:32:50.272Z,99.90
2018-03-15T09:35:17.748Z,99.90
2018-03-15T09:37:45.232Z,99.90
2018-03-15T09:40:13.471Z,99.90
2018-03-15T09:42:40.961Z,99.90
2018-03-15T09:45:08.692Z,99.90
2018-03-15T09:47:36.163Z,99.90
2018-03-15T09:50:03.641Z,99.90
2018-03-15T09:52:31.253Z,99.90
2018-03-15T09:54:58.865Z,99.90
2018-03-15T09:57:26.456Z,99.60
2018-03-15T09:59:53.999Z,99.90
2018-03-15T10:02:21.479Z,99.90
2018-03-15T10:04:48.965Z,99.90
2018-03-15T10:07:16.443Z,99.90
2018-03-15T10:09:43.917Z,99.90
2018-03-15T10:12:11.684Z,99.90
2018-03-15T10:14:39.376Z,99.90
2018-03-15T10:17:06.904Z,99.90
2018-03-15T10:19:34.375Z,99.90
2018-03-15T10:22:01.852Z,99.90
2018-03-15T10:24:29.500Z,99.90
2018-03-15T10:26:57.039Z,99.90
2018-03-15T10:29:24.521Z,99.90
2018-03-15T10:31:52.010Z,99.90
2018-03-15T10:34:19.492Z,99.90
2018-03-15T10:36:47.187Z,99.90
2018-03-15T10:39:14.675Z,99.90
2018-03-15T10:41:42.408Z,99.90
2018-03-15T10:44:10.327Z,99.90
2018-03-15T10:46:37.888Z,99.90
2018-03-15T10:49:05.719Z,99.90
2018-03-15T10:51:33.390Z,99.90
2018-03-15T10:54:00.924Z,99.90
2018-03-15T10:56:28.403Z,99.70
2018-03-15T10:58:56.146Z,99.10
2018-03-15T11:01:23.667Z,97.90
2018-03-15T11:03:51.152Z,96.60
2018-03-15T11:06:24.336Z,94.30
2018-03-15T11:08:57.520Z,93.60
2018-03-15T11:11:25.108Z,93.60
2018-03-15T11:13:54.083Z,92.40
2018-03-15T11:16:21.875Z,92.50
2018-03-15T11:18:49.607Z,91.80
2018-03-15T11:21:17.091Z,92.00
2018-03-15T11:23:44.630Z,92.50
2018-03-15T11:26:12.295Z,92.30
2018-03-15T11:28:39.779Z,92.30
2018-03-15T11:31:07.248Z,93.60
2018-03-15T11:33:34.738Z,93.60
2018-03-15T11:36:02.459Z,93.00
2018-03-15T11:38:30.075Z,93.30
2018-03-15T11:40:57.603Z,93.10
2018-03-15T11:43:25.083Z,92.00
2018-03-15T11:45:52.596Z,91.90
2018-03-15T11:50:54.795Z,91.60
2018-03-15T11:53:22.269Z,91.40
2018-03-15T11:55:49.799Z,91.00
2018-03-15T11:58:17.278Z,90.80
2018-03-15T12:00:45.020Z,89.90
2018-03-15T12:03:12.488Z,90.70
2018-03-15T12:05:40.243Z,90.40
2018-03-15T12:08:08.008Z,90.20
2018-03-15T12:10:35.727Z,90.00
2018-03-15T12:13:03.546Z,90.00
2018-03-15T12:15:31.408Z,88.80
2018-03-15T12:17:58.878Z,89.90
2018-03-15T12:20:26.336Z,88.70
2018-03-15T12:22:54.599Z,89.10
2018-03-15T12:25:22.370Z,88.60
2018-03-15T12:27:49.841Z,90.50
2018-03-15T12:30:17.523Z,90.70
2018-03-15T12:32:45.301Z,90.10
2018-03-15T12:35:12.816Z,90.40
2018-03-15T12:37:40.580Z,87.40
2018-03-15T12:40:08.257Z,87.70
2018-03-15T12:42:35.911Z,90.40
2018-03-15T12:45:03.563Z,90.40
2018-03-15T12:47:31.244Z,90.40
2018-03-15T12:49:58.715Z,90.40
2018-03-15T12:52:26.175Z,90.50
2018-03-15T12:54:53.643Z,89.50
2018-03-15T12:57:21.132Z,90.10
2018-03-15T12:59:48.597Z,89.90
2018-03-15T13:02:16.060Z,90.60
2018-03-15T13:04:43.544Z,90.30
2018-03-15T13:07:11.301Z,90.90
2018-03-15T13:09:38.836Z,90.60
2018-03-15T13:12:06.440Z,91.00
2018-03-15T13:14:33.920Z,91.40
2018-03-15T13:17:01.443Z,91.60
2018-03-15T13:19:29.204Z,91.40
2018-03-15T13:21:56.781Z,91.60
2018-03-15T13:24:25.042Z,91.30
2018-03-15T13:26:52.810Z,91.30
2018-03-15T13:29:20.492Z,90.70
2018-03-15T13:31:49.001Z,90.50
2018-03-15T13:34:16.644Z,90.50
2018-03-15T13:36:44.189Z,91.60
2018-03-15T13:39:11.950Z,90.30
2018-03-15T13:41:39.624Z,90.40
2018-03-15T13:44:07.169Z,91.20
2018-03-15T13:46:34.853Z,90.70
2018-03-15T13:49:02.314Z,91.20
2018-03-15T13:51:29.845Z,91.30
2018-03-15T13:53:57.561Z,91.20
2018-03-15T13:56:25.234Z,91.40
2018-03-15T13:58:52.754Z,91.40
2018-03-15T14:01:20.295Z,91.40
2018-03-15T14:03:47.763Z,91.50
2018-03-15T14:06:15.229Z,91.50
2018-03-15T14:08:42.973Z,91.30
2018-03-15T14:11:10.460Z,90.80
2018-03-15T14:13:38.701Z,90.40
2018-03-15T14:16:06.152Z,90.40
2018-03-15T14:18:33.648Z,90.40
2018-03-15T14:21:01.478Z,90.70
2018-03-15T14:23:28.952Z,90.80
2018-03-15T14:25:56.412Z,91.00
2018-03-15T14:28:24.173Z,90.20
2018-03-15T14:30:51.630Z,90.40
2018-03-15T14:33:19.240Z,91.00
2018-03-15T14:35:46.771Z,90.80
2018-03-15T14:38:14.258Z,90.70
2018-03-15T14:40:41.724Z,91.00
2018-03-15T14:43:09.180Z,91.00
2018-03-15T14:45:36.655Z,90.50
2018-03-15T14:48:04.301Z,91.10
2018-03-15T14:50:31.824Z,90.90
2018-03-15T14:52:59.288Z,91.50
2018-03-15T14:55:26.768Z,91.40
2018-03-15T14:57:54.285Z,91.40
2018-03-15T15:00:21.744Z,92.00
2018-03-15T15:02:49.213Z,91.50
2018-03-15T15:05:16.672Z,90.70
2018-03-15T15:07:44.917Z,91.50
2018-03-15T15:10:12.403Z,91.50
2018-03-15T15:12:40.632Z,92.20
2018-03-15T15:15:08.111Z,92.20
2018-03-15T15:17:35.797Z,91.90
2018-03-15T15:20:03.554Z,91.60
2018-03-15T15:22:31.024Z,91.60
2018-03-15T15:24:58.780Z,92.40
2018-03-15T15:27:26.298Z,92.40
2018-03-15T15:29:53.737Z,91.60
2018-03-15T15:32:21.374Z,92.50
2018-03-15T15:34:49.616Z,92.50
2018-03-15T15:37:17.299Z,92.60
2018-03-15T15:39:45.059Z,92.60
2018-03-15T15:42:12.831Z,92.90
2018-03-15T15:44:40.296Z,93.20
2018-03-15T15:47:08.664Z,93.70
2018-03-15T15:49:36.427Z,93.80
2018-03-15T15:52:03.909Z,94.10
2018-03-15T15:54:31.653Z,94.30
2018-03-15T15:56:59.121Z,94.40
2018-03-15T15:59:26.584Z,94.50
2018-03-15T16:01:54.053Z,94.60
2018-03-15T16:04:21.792Z,95.00
2018-03-15T16:06:49.556Z,95.00
2018-03-15T16:09:17.321Z,94.70
2018-03-15T16:11:45.087Z,95.50
2018-03-15T16:14:12.855Z,95.50
2018-03-15T16:16:40.619Z,95.80
2018-03-15T16:19:08.093Z,96.00
2018-03-15T16:21:35.779Z,96.10
2018-03-15T16:24:03.254Z,96.20
2018-03-15T16:26:30.732Z,96.20
2018-03-15T16:28:58.208Z,96.30
2018-03-15T16:31:25.684Z,96.40
2018-03-15T16:33:53.167Z,96.30
2018-03-15T16:36:20.900Z,96.50
2018-03-15T16:38:48.684Z,96.80
2018-03-15T16:41:16.428Z,96.90
2018-03-15T16:43:43.912Z,97.30
2018-03-15T16:46:11.805Z,97.10
2018-03-15T16:48:39.272Z,97.20
2018-03-15T16:51:06.814Z,97.10
2018-03-15T16:53:35.180Z,97.20
2018-03-15T16:56:02.709Z,97.20
2018-03-15T16:58:30.177Z,97.20
2018-03-15T17:00:57.841Z,98.10
2018-03-15T17:03:25.308Z,98.20
2018-03-15T17:05:52.851Z,98.40
2018-03-15T17:08:20.324Z,98.60
2018-03-15T17:10:47.788Z,98.60
2018-03-15T17:13:15.448Z,99.20
2018-03-15T17:15:42.908Z,98.80
2018-03-15T17:18:10.448Z,99.40
2018-03-15T17:20:38.039Z,99.40
2018-03-15T17:23:05.663Z,99.70
2018-03-15T17:25:33.433Z,99.90
2018-03-15T17:28:01.139Z,99.80
2018-03-15T17:30:29.025Z,99.90
2018-03-15T17:32:56.728Z,99.90
2018-03-15T17:35:24.196Z,99.90
2018-03-15T17:37:51.959Z,99.90
2018-03-15T17:40:19.421Z,99.90
2018-03-15T17:42:47.122Z,99.90
2018-03-15T17:45:14.631Z,99.90
2018-03-15T17:47:42.097Z,99.90
2018-03-15T17:50:09.556Z,99.90
2018-03-15T17:52:37.316Z,99.90
2018-03-15T17:55:04.780Z,99.90
2018-03-15T17:57:32.239Z,99.90
2018-03-15T17:59:59.999Z,99.90
2018-03-15T18:02:27.628Z,99.90
2018-03-15T18:04:55.136Z,99.90
2018-03-15T18:07:22.687Z,99.90
2018-03-15T18:09:50.163Z,99.90
2018-03-15T18:12:17.617Z,99.90
2018-03-15T18:14:45.361Z,99.90
2018-03-15T18:17:12.832Z,99.90
2018-03-15T18:19:40.575Z,99.90
2018-03-15T18:22:08.043Z,99.90
2018-03-15T18:24:35.799Z,99.90
2018-03-15T18:27:03.268Z,99.90
2018-03-15T18:29:30.858Z,99.90
2018-03-15T18:31:58.482Z,99.90
2018-03-15T18:34:25.939Z,99.90
2018-03-15T18:36:53.703Z,99.90
2018-03-15T18:39:21.476Z,99.90
2018-03-15T18:41:48.937Z,99.90
2018-03-15T18:44:16.392Z,99.90
2018-03-15T18:46:44.156Z,99.90
2018-03-15T18:49:11.920Z,99.90
2018-03-15T18:51:39.394Z,99.90
2018-03-15T18:54:07.119Z,99.90
2018-03-15T18:56:34.584Z,99.90
2018-03-15T18:59:02.307Z,99.90
2018-03-15T19:01:29.824Z,99.90
2018-03-15T19:03:57.288Z,99.90
2018-03-15T19:06:25.058Z,99.90
2018-03-15T19:08:52.812Z,99.90
2018-03-15T19:11:20.289Z,99.90
2018-03-15T19:13:48.037Z,99.90
2018-03-15T19:16:15.797Z,99.90
2018-03-15T19:18:43.488Z,99.90
2018-03-15T19:21:10.964Z,99.90
2018-03-15T19:23:38.420Z,99.90
2018-03-15T19:26:05.884Z,99.90
2018-03-15T19:28:33.354Z,99.90
2018-03-15T19:31:00.960Z,99.90
2018-03-15T19:33:28.419Z,99.90
2018-03-15T19:35:56.080Z,99.90
2018-03-15T19:38:23.856Z,99.90
2018-03-15T19:40:51.608Z,99.90
2018-03-15T19:43:19.376Z,99.90
2018-03-15T19:45:47.295Z,99.90
2018-03-15T19:48:14.904Z,99.90
2018-03-15T19:50:42.667Z,99.90
2018-03-15T19:53:10.170Z,99.90
2018-03-15T19:55:37.896Z,99.90
2018-03-15T19:58:05.656Z,99.90
2018-03-15T20:00:33.423Z,99.90
2018-03-15T20:03:01.184Z,99.90
2018-03-15T20:05:28.644Z,99.90
2018-03-15T20:10:47.064Z,99.90
2018-03-15T20:13:14.679Z,99.90
2018-03-15T20:15:48.008Z,99.90
2018-03-15T20:18:15.761Z,99.90
2018-03-15T20:20:43.204Z,99.90
2018-03-15T20:23:16.235Z,99.90
2018-03-15T20:25:43.948Z,99.90
2018-03-15T20:28:17.124Z,99.90
2018-03-15T20:30:44.585Z,99.90
2018-03-15T20:33:17.792Z,99.90
2018-03-15T20:35:45.251Z,99.90
2018-03-15T20:38:13.521Z,99.90
2018-03-15T20:40:46.584Z,99.90
2018-03-15T20:43:14.272Z,99.90
2018-03-15T20:45:47.324Z,99.90
2018-03-15T20:48:20.645Z,99.90
2018-03-15T20:50:48.211Z,99.90
2018-03-15T20:53:16.700Z,99.90
2018-03-15T20:55:44.157Z,99.90
2018-03-15T20:58:11.620Z,99.90
2018-03-15T21:00:39.091Z,99.90
2018-03-15T21:03:06.550Z,99.90
2018-03-15T21:05:34.296Z,99.90
2018-03-15T21:08:01.810Z,99.90
2018-03-15T21:10:29.259Z,99.90
2018-03-15T21:12:56.729Z,99.90
2018-03-15T21:15:24.356Z,99.90
2018-03-15T21:17:51.829Z,99.90
2018-03-15T21:20:19.498Z,99.90
2018-03-15T21:22:47.059Z,99.90
2018-03-15T21:25:14.522Z,99.90
2018-03-15T21:27:42.040Z,99.90
2018-03-15T21:30:09.650Z,99.90
2018-03-15T21:32:37.172Z,99.90
2018-03-15T21:35:04.717Z,99.90
2018-03-15T21:37:32.183Z,99.90
2018-03-15T21:39:59.644Z,99.90
2018-03-15T21:42:27.303Z,99.90
2018-03-15T21:44:54.781Z,99.90
2018-03-15T21:47:22.311Z,99.90
2018-03-15T21:49:49.768Z,99.90
2018-03-15T21:52:17.256Z,99.90
2018-03-15T21:54:45.150Z,99.90
2018-03-15T21:57:12.756Z,99.90
2018-03-15T21:59:40.528Z,99.90
2018-03-15T22:02:08.292Z,99.90
2018-03-15T22:04:36.052Z,99.90
2018-03-15T22:07:03.669Z,99.90
2018-03-15T22:09:31.280Z,99.90
2018-03-15T22:11:58.749Z,99.90
2018-03-15T22:14:26.351Z,99.90
2018-03-15T22:16:54.115Z,99.90
2018-03-15T22:19:21.721Z,99.90
2018-03-15T22:21:49.416Z,99.90
2018-03-15T22:24:16.897Z,99.90
2018-03-15T22:26:44.347Z,99.90
2018-03-15T22:29:11.818Z,99.90
2018-03-15T22:31:39.324Z,99.90
2018-03-15T22:34:07.091Z,99.90
2018-03-15T22:36:34.755Z,99.90
2018-03-15T22:39:02.266Z,99.90
2018-03-15T22:41:29.722Z,99.90
2018-03-15T22:43:57.178Z,99.90
2018-03-15T22:46:24.651Z,99.90
2018-03-15T22:48:52.107Z,99.90
2018-03-15T22:51:19.576Z,99.90
2018-03-15T22:53:47.056Z,99.90
2018-03-15T22:56:14.524Z,99.90
2018-03-15T22:58:42.280Z,99.90
2018-03-15T23:01:09.753Z,99.90
2018-03-15T23:03:37.472Z,99.90
2018-03-15T23:06:04.964Z,99.90
2018-03-15T23:08:32.440Z,99.90
2018-03-15T23:11:00.096Z,99.90
2018-03-15T23:13:27.555Z,99.90
2018-03-15T23:15:55.106Z,99.90
2018-03-15T23:18:22.559Z,99.90
2018-03-15T23:20:50.043Z,99.90
2018-03-15T23:23:17.499Z,99.90
2018-03-15T23:25:45.152Z,99.90
2018-03-15T23:28:13.392Z,99.90
2018-03-15T23:30:41.077Z,99.90
2018-03-15T23:33:08.536Z,99.90
2018-03-15T23:35:36.214Z,99.90
2018-03-15T23:38:03.757Z,99.90
2018-03-15T23:40:31.439Z,99.90
2018-03-15T23:42:58.897Z,99.90
2018-03-15T23:45:26.363Z,99.90
2018-03-15T23:47:53.825Z,99.90
2018-03-15T23:50:22.272Z,99.90
2018-03-15T23:52:49.744Z,99.90
2018-03-15T23:55:17.411Z,99.90
2018-03-15T23:57:44.908Z,99.90
